sensor_id;sensor_type;location;lat;lon;timestamp;temperature;humidity
59975;DHT22;62136;-35.664;-63.766;2023-01-30T11:11:21;27.30;49.80
59975;DHT22;62136;-35.664;-63.766;2023-01-30T11:13:49;27.10;50.10
59975;DHT22;62136;-35.664;-63.766;2023-01-30T11:16:16;26.90;50.30
59975;DHT22;62136;-35.664;-63.766;2023-01-30T11:18:45;26.90;50.40
59975;DHT22;62136;-35.664;-63.766;2023-01-30T11:21:23;26.90;50.50
59975;DHT22;62136;-35.664;-63.766;2023-01-30T11:23:50;26.70;50.70
59975;DHT22;62136;-35.664;-63.766;2023-01-30T11:26:24;26.70;50.70
59975;DHT22;62136;-35.664;-63.766;2023-01-30T11:28:55;26.70;50.80
59975;DHT22;62136;-35.664;-63.766;2023-01-30T11:31:25;26.60;50.90
59975;DHT22;62136;-35.664;-63.766;2023-01-30T11:34:02;26.60;51.00
59975;DHT22;62136;-35.664;-63.766;2023-01-30T11:36:33;26.60;51.00
59975;DHT22;62136;-35.664;-63.766;2023-01-30T11:41:27;26.60;51.00
59975;DHT22;62136;-35.664;-63.766;2023-01-30T11:43:59;26.60;51.00
59975;DHT22;62136;-35.664;-63.766;2023-01-30T11:46:27;26.60;50.80
59975;DHT22;62136;-35.664;-63.766;2023-01-30T11:48:57;26.70;50.50
59975;DHT22;62136;-35.664;-63.766;2023-01-30T11:51:25;26.60;50.30
59975;DHT22;62136;-35.664;-63.766;2023-01-30T11:53:59;26.60;50.30
59975;DHT22;62136;-35.664;-63.766;2023-01-30T12:01:38;26.50;50.10
59975;DHT22;62136;-35.664;-63.766;2023-01-30T12:04:05;26.50;50.20
59975;DHT22;62136;-35.664;-63.766;2023-01-30T12:06:34;26.50;50.10
59975;DHT22;62136;-35.664;-63.766;2023-01-30T12:09:01;26.50;50.10
59975;DHT22;62136;-35.664;-63.766;2023-01-30T12:14:08;26.60;49.90
59975;DHT22;62136;-35.664;-63.766;2023-01-30T12:16:50;26.60;49.60
59975;DHT22;62136;-35.664;-63.766;2023-01-30T12:22:15;26.60;49.80
59975;DHT22;62136;-35.664;-63.766;2023-01-30T12:27:53;26.70;49.20
59975;DHT22;62136;-35.664;-63.766;2023-01-30T12:30:29;26.80;49.30
59975;DHT22;62136;-35.664;-63.766;2023-01-30T12:32:59;26.80;49.10
59975;DHT22;62136;-35.664;-63.766;2023-01-30T12:35:36;26.80;49.20
59975;DHT22;62136;-35.664;-63.766;2023-01-30T13:06:44;27.20;46.90
59975;DHT22;62136;-35.664;-63.766;2023-01-30T13:09:35;27.10;46.90
59975;DHT22;62136;-35.664;-63.766;2023-01-30T13:17:04;27.30;46.90
59975;DHT22;62136;-35.664;-63.766;2023-01-30T13:19:55;27.30;46.90
59975;DHT22;62136;-35.664;-63.766;2023-01-30T13:27:36;27.40;46.40
59975;DHT22;62136;-35.664;-63.766;2023-01-30T13:30:05;27.40;46.20
59975;DHT22;62136;-35.664;-63.766;2023-01-30T13:32:44;27.40;46.20
59975;DHT22;62136;-35.664;-63.766;2023-01-30T13:35:15;27.40;45.80
59975;DHT22;62136;-35.664;-63.766;2023-01-30T13:37:43;27.40;45.60
59975;DHT22;62136;-35.664;-63.766;2023-01-30T13:40:18;27.50;46.10
59975;DHT22;62136;-35.664;-63.766;2023-01-30T13:45:19;27.60;45.90
59975;DHT22;62136;-35.664;-63.766;2023-01-30T13:53:03;27.70;46.10
59975;DHT22;62136;-35.664;-63.766;2023-01-30T13:55:33;27.70;46.30
59975;DHT22;62136;-35.664;-63.766;2023-01-30T13:58:04;27.80;46.30
59975;DHT22;62136;-35.664;-63.766;2023-01-30T14:00:35;27.80;46.80
59975;DHT22;62136;-35.664;-63.766;2023-01-30T14:08:22;27.90;47.00
59975;DHT22;62136;-35.664;-63.766;2023-01-30T14:10:52;27.90;46.90
59975;DHT22;62136;-35.664;-63.766;2023-01-30T14:13:23;28.00;46.90
59975;DHT22;62136;-35.664;-63.766;2023-01-30T14:16:03;28.00;46.90
59975;DHT22;62136;-35.664;-63.766;2023-01-30T14:18:31;28.10;47.10
59975;DHT22;62136;-35.664;-63.766;2023-01-30T14:21:20;28.10;47.10
59975;DHT22;62136;-35.664;-63.766;2023-01-30T14:24:22;28.10;47.10
59975;DHT22;62136;-35.664;-63.766;2023-01-30T14:34:38;28.30;47.50
59975;DHT22;62136;-35.664;-63.766;2023-01-30T14:39:51;28.30;47.40
59975;DHT22;62136;-35.664;-63.766;2023-01-30T14:42:19;28.40;47.40
59975;DHT22;62136;-35.664;-63.766;2023-01-30T14:45:02;28.40;47.20
59975;DHT22;62136;-35.664;-63.766;2023-01-30T14:47:29;28.50;47.20
59975;DHT22;62136;-35.664;-63.766;2023-01-30T14:49:57;28.50;47.10
59975;DHT22;62136;-35.664;-63.766;2023-01-30T14:52:37;28.50;46.90
59975;DHT22;62136;-35.664;-63.766;2023-01-30T14:55:14;28.50;46.70
59975;DHT22;62136;-35.664;-63.766;2023-01-30T14:57:47;28.60;46.60
59975;DHT22;62136;-35.664;-63.766;2023-01-30T15:00:18;28.60;46.50
59975;DHT22;62136;-35.664;-63.766;2023-01-30T15:03:07;28.60;46.50
59975;DHT22;62136;-35.664;-63.766;2023-01-30T15:05:53;28.70;46.50
59975;DHT22;62136;-35.664;-63.766;2023-01-30T15:08:20;28.70;46.40
59975;DHT22;62136;-35.664;-63.766;2023-01-30T15:32:01;29.10;46.10
59975;DHT22;62136;-35.664;-63.766;2023-01-30T15:34:29;29.10;46.00
59975;DHT22;62136;-35.664;-63.766;2023-01-30T15:36:55;29.10;46.30
59975;DHT22;62136;-35.664;-63.766;2023-01-30T15:39:26;29.20;46.20
59975;DHT22;62136;-35.664;-63.766;2023-01-30T15:41:57;29.20;46.20
59975;DHT22;62136;-35.664;-63.766;2023-01-30T15:52:02;29.30;45.90
59975;DHT22;62136;-35.664;-63.766;2023-01-30T15:54:29;29.30;45.80
59975;DHT22;62136;-35.664;-63.766;2023-01-30T15:56:56;29.40;45.90
59975;DHT22;62136;-35.664;-63.766;2023-01-30T15:59:33;29.40;45.80
59975;DHT22;62136;-35.664;-63.766;2023-01-30T16:02:04;29.40;45.90
59975;DHT22;62136;-35.664;-63.766;2023-01-30T16:04:32;29.40;45.70
59975;DHT22;62136;-35.664;-63.766;2023-01-30T16:06:58;29.50;45.80
59975;DHT22;62136;-35.664;-63.766;2023-01-30T16:09:25;29.50;45.90
59975;DHT22;62136;-35.664;-63.766;2023-01-30T16:11:52;29.50;45.90
59975;DHT22;62136;-35.664;-63.766;2023-01-30T16:14:19;29.60;45.70
59975;DHT22;62136;-35.664;-63.766;2023-01-30T16:16:48;29.60;45.60
59975;DHT22;62136;-35.664;-63.766;2023-01-30T16:19:22;29.60;45.50
59975;DHT22;62136;-35.664;-63.766;2023-01-30T16:21:51;29.70;45.40
59975;DHT22;62136;-35.664;-63.766;2023-01-30T16:24:27;29.70;45.30
59975;DHT22;62136;-35.664;-63.766;2023-01-30T16:26:57;29.70;45.40
59975;DHT22;62136;-35.664;-63.766;2023-01-30T16:29:25;29.70;45.10
59975;DHT22;62136;-35.664;-63.766;2023-01-30T16:31:52;29.80;45.20
59975;DHT22;62136;-35.664;-63.766;2023-01-30T16:36:46;29.80;45.20
59975;DHT22;62136;-35.664;-63.766;2023-01-30T16:39:29;29.80;45.20
59975;DHT22;62136;-35.664;-63.766;2023-01-30T16:41:56;29.80;45.20
59975;DHT22;62136;-35.664;-63.766;2023-01-30T16:44:24;29.90;45.20
59975;DHT22;62136;-35.664;-63.766;2023-01-30T16:49:19;29.80;45.10
59975;DHT22;62136;-35.664;-63.766;2023-01-30T16:51:46;29.90;45.10
59975;DHT22;62136;-35.664;-63.766;2023-01-30T16:54:17;29.90;45.10
59975;DHT22;62136;-35.664;-63.766;2023-01-30T16:56:46;29.90;44.90
59975;DHT22;62136;-35.664;-63.766;2023-01-30T16:59:17;30.00;44.80
59975;DHT22;62136;-35.664;-63.766;2023-01-30T17:01:45;30.00;44.90
59975;DHT22;62136;-35.664;-63.766;2023-01-30T17:04:15;30.10;44.90
59975;DHT22;62136;-35.664;-63.766;2023-01-30T17:06:43;30.10;44.70
59975;DHT22;62136;-35.664;-63.766;2023-01-30T17:11:59;30.10;44.50
59975;DHT22;62136;-35.664;-63.766;2023-01-30T17:14:27;30.20;44.60
59975;DHT22;62136;-35.664;-63.766;2023-01-30T17:19:27;30.30;44.50
59975;DHT22;62136;-35.664;-63.766;2023-01-30T17:21:53;30.30;44.50
59975;DHT22;62136;-35.664;-63.766;2023-01-30T17:24:22;30.30;44.40
59975;DHT22;62136;-35.664;-63.766;2023-01-30T17:26:55;30.40;44.50
59975;DHT22;62136;-35.664;-63.766;2023-01-30T17:29:27;30.40;44.40
59975;DHT22;62136;-35.664;-63.766;2023-01-30T17:31:54;30.40;44.40
59975;DHT22;62136;-35.664;-63.766;2023-01-30T17:34:21;30.40;44.40
59975;DHT22;62136;-35.664;-63.766;2023-01-30T17:36:48;30.50;44.40
59975;DHT22;62136;-35.664;-63.766;2023-01-30T17:39:16;30.50;44.40
59975;DHT22;62136;-35.664;-63.766;2023-01-30T17:41:43;30.50;44.30
59975;DHT22;62136;-35.664;-63.766;2023-01-30T17:44:10;30.50;44.30
59975;DHT22;62136;-35.664;-63.766;2023-01-30T17:46:37;30.50;44.30
59975;DHT22;62136;-35.664;-63.766;2023-01-30T17:49:19;30.60;44.40
59975;DHT22;62136;-35.664;-63.766;2023-01-30T17:51:46;30.60;44.30
59975;DHT22;62136;-35.664;-63.766;2023-01-30T17:54:12;30.60;44.20
59975;DHT22;62136;-35.664;-63.766;2023-01-30T17:56:41;30.60;44.20
59975;DHT22;62136;-35.664;-63.766;2023-01-30T17:59:10;30.60;44.20
59975;DHT22;62136;-35.664;-63.766;2023-01-30T18:01:41;30.70;44.20
59975;DHT22;62136;-35.664;-63.766;2023-01-30T18:04:08;30.60;44.10
59975;DHT22;62136;-35.664;-63.766;2023-01-30T18:06:37;30.70;44.10
59975;DHT22;62136;-35.664;-63.766;2023-01-30T18:09:04;30.70;44.10
59975;DHT22;62136;-35.664;-63.766;2023-01-30T18:11:31;30.70;44.10
59975;DHT22;62136;-35.664;-63.766;2023-01-30T18:13:57;30.70;44.10
59975;DHT22;62136;-35.664;-63.766;2023-01-30T18:16:25;30.80;44.20
59975;DHT22;62136;-35.664;-63.766;2023-01-30T18:18:59;30.80;44.20
59975;DHT22;62136;-35.664;-63.766;2023-01-30T18:21:30;30.80;44.10
59975;DHT22;62136;-35.664;-63.766;2023-01-30T18:23:57;30.80;44.50
59975;DHT22;62136;-35.664;-63.766;2023-01-30T18:26:23;30.80;44.00
59975;DHT22;62136;-35.664;-63.766;2023-01-30T18:28:50;30.80;44.00
59975;DHT22;62136;-35.664;-63.766;2023-01-30T18:31:17;30.90;44.10
59975;DHT22;62136;-35.664;-63.766;2023-01-30T18:33:43;30.90;44.00
59975;DHT22;62136;-35.664;-63.766;2023-01-30T18:36:11;30.90;44.00
59975;DHT22;62136;-35.664;-63.766;2023-01-30T18:38:38;30.90;44.00
59975;DHT22;62136;-35.664;-63.766;2023-01-30T18:41:09;30.90;44.00
59975;DHT22;62136;-35.664;-63.766;2023-01-30T18:43:37;30.90;43.90
59975;DHT22;62136;-35.664;-63.766;2023-01-30T18:46:04;31.00;44.00
59975;DHT22;62136;-35.664;-63.766;2023-01-30T18:48:31;31.00;44.00
59975;DHT22;62136;-35.664;-63.766;2023-01-30T18:51:08;31.00;44.00
59975;DHT22;62136;-35.664;-63.766;2023-01-30T18:53:36;31.00;44.00
59975;DHT22;62136;-35.664;-63.766;2023-01-30T18:56:03;31.00;44.40
59975;DHT22;62136;-35.664;-63.766;2023-01-30T18:58:32;31.10;44.00
59975;DHT22;62136;-35.664;-63.766;2023-01-30T19:00:59;31.10;44.00
59975;DHT22;62136;-35.664;-63.766;2023-01-30T19:03:25;31.10;44.00
59975;DHT22;62136;-35.664;-63.766;2023-01-30T19:05:52;31.10;44.00
59975;DHT22;62136;-35.664;-63.766;2023-01-30T19:08:18;31.10;43.90
59975;DHT22;62136;-35.664;-63.766;2023-01-30T19:10:46;31.10;43.90
59975;DHT22;62136;-35.664;-63.766;2023-01-30T19:13:13;31.10;43.90
59975;DHT22;62136;-35.664;-63.766;2023-01-30T19:16:00;31.10;43.90
59975;DHT22;62136;-35.664;-63.766;2023-01-30T19:18:28;31.20;43.90
59975;DHT22;62136;-35.664;-63.766;2023-01-30T19:20:58;31.20;43.90
59975;DHT22;62136;-35.664;-63.766;2023-01-30T19:23:28;31.20;43.80
59975;DHT22;62136;-35.664;-63.766;2023-01-30T19:25:55;31.20;43.80
59975;DHT22;62136;-35.664;-63.766;2023-01-30T19:28:24;31.20;43.80
59975;DHT22;62136;-35.664;-63.766;2023-01-30T19:30:50;31.20;43.80
59975;DHT22;62136;-35.664;-63.766;2023-01-30T19:33:16;31.20;43.80
59975;DHT22;62136;-35.664;-63.766;2023-01-30T19:35:43;31.20;43.70
59975;DHT22;62136;-35.664;-63.766;2023-01-30T19:38:12;31.20;43.70
59975;DHT22;62136;-35.664;-63.766;2023-01-30T19:40:40;31.30;43.80
59975;DHT22;62136;-35.664;-63.766;2023-01-30T19:43:07;31.30;43.70
59975;DHT22;62136;-35.664;-63.766;2023-01-30T19:45:33;31.30;43.70
59975;DHT22;62136;-35.664;-63.766;2023-01-30T19:48:00;31.30;43.80
59975;DHT22;62136;-35.664;-63.766;2023-01-30T19:50:27;31.30;43.70
59975;DHT22;62136;-35.664;-63.766;2023-01-30T19:52:53;31.40;43.70
59975;DHT22;62136;-35.664;-63.766;2023-01-30T19:55:19;31.40;43.80
59975;DHT22;62136;-35.664;-63.766;2023-01-30T19:57:46;31.40;43.80
59975;DHT22;62136;-35.664;-63.766;2023-01-30T20:00:13;31.40;43.70
59975;DHT22;62136;-35.664;-63.766;2023-01-30T20:02:39;31.40;43.80
59975;DHT22;62136;-35.664;-63.766;2023-01-30T20:05:06;31.40;43.80
59975;DHT22;62136;-35.664;-63.766;2023-01-30T20:07:32;31.40;43.80
59975;DHT22;62136;-35.664;-63.766;2023-01-30T20:09:59;31.40;43.80
59975;DHT22;62136;-35.664;-63.766;2023-01-30T20:12:25;31.40;43.80
59975;DHT22;62136;-35.664;-63.766;2023-01-30T20:14:52;31.40;43.80
59975;DHT22;62136;-35.664;-63.766;2023-01-30T20:17:18;31.50;43.80
59975;DHT22;62136;-35.664;-63.766;2023-01-30T20:19:45;31.50;43.80
59975;DHT22;62136;-35.664;-63.766;2023-01-30T20:22:11;31.50;43.80
59975;DHT22;62136;-35.664;-63.766;2023-01-30T20:24:38;31.50;43.80
59975;DHT22;62136;-35.664;-63.766;2023-01-30T20:27:05;31.50;43.80
59975;DHT22;62136;-35.664;-63.766;2023-01-30T20:29:32;31.50;43.90
59975;DHT22;62136;-35.664;-63.766;2023-01-30T20:31:59;31.60;44.00
59975;DHT22;62136;-35.664;-63.766;2023-01-30T20:34:25;31.60;44.00
59975;DHT22;62136;-35.664;-63.766;2023-01-30T20:36:52;31.60;43.90
59975;DHT22;62136;-35.664;-63.766;2023-01-30T20:39:18;31.60;44.00
59975;DHT22;62136;-35.664;-63.766;2023-01-30T20:41:46;31.60;44.00
59975;DHT22;62136;-35.664;-63.766;2023-01-30T20:44:13;31.60;44.00
59975;DHT22;62136;-35.664;-63.766;2023-01-30T20:46:40;31.60;44.00
59975;DHT22;62136;-35.664;-63.766;2023-01-30T20:51:41;31.60;44.00
59975;DHT22;62136;-35.664;-63.766;2023-01-30T20:54:08;31.60;44.00
59975;DHT22;62136;-35.664;-63.766;2023-01-30T20:56:36;31.70;44.10
59975;DHT22;62136;-35.664;-63.766;2023-01-30T20:59:04;31.60;44.10
59975;DHT22;62136;-35.664;-63.766;2023-01-30T21:01:31;31.60;44.20
59975;DHT22;62136;-35.664;-63.766;2023-01-30T21:03:57;31.60;44.20
59975;DHT22;62136;-35.664;-63.766;2023-01-30T21:06:30;31.70;44.20
59975;DHT22;62136;-35.664;-63.766;2023-01-30T21:08:57;31.70;44.10
59975;DHT22;62136;-35.664;-63.766;2023-01-30T21:11:23;31.60;44.10
59975;DHT22;62136;-35.664;-63.766;2023-01-30T21:13:50;31.70;44.20
59975;DHT22;62136;-35.664;-63.766;2023-01-30T21:16:24;31.70;44.20
59975;DHT22;62136;-35.664;-63.766;2023-01-30T21:18:51;31.70;44.20
59975;DHT22;62136;-35.664;-63.766;2023-01-30T21:21:22;31.70;44.20
59975;DHT22;62136;-35.664;-63.766;2023-01-30T21:23:49;31.70;44.30
59975;DHT22;62136;-35.664;-63.766;2023-01-30T21:26:17;31.70;44.30
59975;DHT22;62136;-35.664;-63.766;2023-01-30T21:28:44;31.70;44.30
59975;DHT22;62136;-35.664;-63.766;2023-01-30T21:31:12;31.70;44.20
59975;DHT22;62136;-35.664;-63.766;2023-01-30T21:33:39;31.70;44.10
59975;DHT22;62136;-35.664;-63.766;2023-01-30T21:36:06;31.70;44.20
59975;DHT22;62136;-35.664;-63.766;2023-01-30T21:38:32;31.70;44.30
59975;DHT22;62136;-35.664;-63.766;2023-01-30T21:41:21;31.70;44.30
59975;DHT22;62136;-35.664;-63.766;2023-01-30T21:44:06;31.70;44.30
59975;DHT22;62136;-35.664;-63.766;2023-01-30T21:46:34;31.70;44.30
59975;DHT22;62136;-35.664;-63.766;2023-01-30T21:49:02;31.70;44.30
59975;DHT22;62136;-35.664;-63.766;2023-01-30T21:51:29;31.70;44.20
59975;DHT22;62136;-35.664;-63.766;2023-01-30T21:53:56;31.70;44.20
59975;DHT22;62136;-35.664;-63.766;2023-01-30T21:56:25;31.70;44.20
59975;DHT22;62136;-35.664;-63.766;2023-01-30T21:58:51;31.70;44.40
59975;DHT22;62136;-35.664;-63.766;2023-01-30T22:01:20;31.70;44.50
59975;DHT22;62136;-35.664;-63.766;2023-01-30T22:03:47;31.70;44.60
59975;DHT22;62136;-35.664;-63.766;2023-01-30T22:06:13;31.70;44.50
59975;DHT22;62136;-35.664;-63.766;2023-01-30T22:08:40;31.70;44.60
59975;DHT22;62136;-35.664;-63.766;2023-01-30T22:11:13;31.70;44.70
59975;DHT22;62136;-35.664;-63.766;2023-01-30T22:13:41;31.70;44.70
59975;DHT22;62136;-35.664;-63.766;2023-01-30T22:16:08;31.70;44.80
59975;DHT22;62136;-35.664;-63.766;2023-01-30T22:18:38;31.70;44.80
59975;DHT22;62136;-35.664;-63.766;2023-01-30T22:21:15;31.60;44.90
59975;DHT22;62136;-35.664;-63.766;2023-01-30T22:23:42;31.60;44.90
59975;DHT22;62136;-35.664;-63.766;2023-01-30T22:26:10;31.70;45.00
59975;DHT22;62136;-35.664;-63.766;2023-01-30T22:28:37;31.60;45.00
59975;DHT22;62136;-35.664;-63.766;2023-01-30T22:31:04;31.60;45.00
59975;DHT22;62136;-35.664;-63.766;2023-01-30T22:33:31;31.60;45.10
59975;DHT22;62136;-35.664;-63.766;2023-01-30T22:35:57;31.60;45.10
59975;DHT22;62136;-35.664;-63.766;2023-01-30T22:38:24;31.60;45.20
59975;DHT22;62136;-35.664;-63.766;2023-01-30T22:43:32;31.60;45.20
59975;DHT22;62136;-35.664;-63.766;2023-01-30T22:46:03;31.60;45.30
59975;DHT22;62136;-35.664;-63.766;2023-01-30T22:48:30;31.60;45.30
59975;DHT22;62136;-35.664;-63.766;2023-01-30T22:51:00;31.60;45.30
59975;DHT22;62136;-35.664;-63.766;2023-01-30T22:53:30;31.60;45.40
59975;DHT22;62136;-35.664;-63.766;2023-01-30T22:56:00;31.50;45.30
59975;DHT22;62136;-35.664;-63.766;2023-01-30T22:58:27;31.50;45.40
59975;DHT22;62136;-35.664;-63.766;2023-01-30T23:00:54;31.50;45.40
59975;DHT22;62136;-35.664;-63.766;2023-01-30T23:03:20;31.50;45.50
59975;DHT22;62136;-35.664;-63.766;2023-01-30T23:05:59;31.50;45.50
59975;DHT22;62136;-35.664;-63.766;2023-01-30T23:08:30;31.50;45.60
59975;DHT22;62136;-35.664;-63.766;2023-01-30T23:10:57;31.50;45.60
59975;DHT22;62136;-35.664;-63.766;2023-01-30T23:13:24;31.50;45.60
59975;DHT22;62136;-35.664;-63.766;2023-01-30T23:15:51;31.50;45.70
59975;DHT22;62136;-35.664;-63.766;2023-01-30T23:18:17;31.50;45.70
59975;DHT22;62136;-35.664;-63.766;2023-01-30T23:21:08;31.50;45.70
59975;DHT22;62136;-35.664;-63.766;2023-01-30T23:23:34;31.40;45.80
59975;DHT22;62136;-35.664;-63.766;2023-01-30T23:26:01;31.40;45.80
59975;DHT22;62136;-35.664;-63.766;2023-01-30T23:28:28;31.40;45.80
59975;DHT22;62136;-35.664;-63.766;2023-01-30T23:30:54;31.40;45.90
59975;DHT22;62136;-35.664;-63.766;2023-01-30T23:33:20;31.40;45.90
59975;DHT22;62136;-35.664;-63.766;2023-01-30T23:35:47;31.40;45.90
59975;DHT22;62136;-35.664;-63.766;2023-01-30T23:38:13;31.40;45.90
59975;DHT22;62136;-35.664;-63.766;2023-01-30T23:40:47;31.40;46.00
59975;DHT22;62136;-35.664;-63.766;2023-01-30T23:43:14;31.40;46.00
59975;DHT22;62136;-35.664;-63.766;2023-01-30T23:45:41;31.40;46.10
59975;DHT22;62136;-35.664;-63.766;2023-01-30T23:48:07;31.30;46.00
59975;DHT22;62136;-35.664;-63.766;2023-01-30T23:50:34;31.30;46.10
59975;DHT22;62136;-35.664;-63.766;2023-01-30T23:53:02;31.30;46.10
59975;DHT22;62136;-35.664;-63.766;2023-01-30T23:55:29;31.30;46.10
59975;DHT22;62136;-35.664;-63.766;2023-01-30T23:57:55;31.20;46.10
